Главная страница
METAR-TAF:

METAR-TAF

Аэропорты :

Котока

Аккра, Гана

широта: 05-36N, долгота: 000-10W, высота над уровнем моря: 68 м

Текущие метеонаблюдения

Эта сводка был подготовлена 58 минут назад, в 01:00 UTC
Ветер 12 Узел от юго-западный
Температура 26°C
Влажность 84%
Давление 1012 hPa
Видимость 10 км и более
Рассеянная облачность на высоте 1200 фута
Сплошная облачность на высоте 4400 фута

METAR: DGAA 250100Z 23012KT 9999 BKN012 OVC044 26/23 Q1012 NOSIG

Время: 01:58 (01:58 UTC)

Прогноз

Эта сводка был подготовлена 2 часа и 58 минут назад, в 23:00 UTC
Прогноз действительный с 25-го 00 UTC до 26-го 06 UTC
Ветер 10 Узел от западный
Видимость 10 км и более
небольшая облачность на высоте 1000 фута
изменения
С 25-го 05 UTC до 25-го 07 UTC
Рассеянная облачность на высоте 1000 фута
изменения
С 25-го 10 UTC до 25-го 12 UTC
Ветер 15 Узел от южный
Отдельные облака на высоте 2000 фута

TAF: DGAA 242300Z 2500/2606 26010KT 9999 FEW010 BECMG 2505/2507 BKN010 BECMG 2510/2512 19015KT SCT020

Метеонаблюдения и прогнозы для более 4000 аэропортов (сводки METAR и TAF).

Имеющиеся станции представлены на карте желтыми и красными точками.

Чтобы увидеть название станции, наведите на нее мышь.

Затем щелкните, чтобы увидеть метеонаблюдения и метеопрогнозы.

Управление картой: чтобы увеличить масштаб, щелкните зеленые кнопки с черным крестиком; чтобы уменьшить масштаб, щелкните зеленую кнопку с тире; для просмотра соседних карт щелкайте зеленые стрелки.


METAR-TAF: